METARs

EEEI - Ämari Air Base

EEEI 021250Z 27012KT CAVOK 19/11 Q1011 NOSIG

EEKA - Kärdla

EEKA 021450Z 31011KT CAVOK 19/12 Q1011

EEKE - Kuressaare

EEKE 021650Z AUTO 02007KT 350V060 9999NDV NCD 18/10 Q1012

EEPU - Pärnu

EEPU 021250Z 31005KT 270V010 9999 OVC/// 19/10 Q1010

EETN - Lennart Meri Tallinn

EETN 021650Z 08011KT 050V110 CAVOK 17/10 Q1010 NOSIG

EETU - Tartu

EETU 021650Z AUTO 28005KT 9999 FEW051/// BKN066/// OVC082/// 17/

Sign In

ATC Booking

currently no ATC Bookings...